Time;durP1;ratioP1;P1;durP2;ratioP2;P2;SDS_P1;SDS_P2;PMS_P1;PMS_P2;Temp;Humidity;BMP_temperature;BMP_pressure;BME280_temperature;BME280_humidity;BME280_pressure;Samples;Min_cycle;Max_cycle;Signal;HPM_P1;HPM_P2
2023/09/18 00:00:05;;;;;;;159.60;150.23;;;15.80;99.90;;;;;;5048979;28;20041;-71
2023/09/18 00:02:31;;;;;;;156.17;146.87;;;15.80;99.90;;;;;;5045942;28;20087;-71
2023/09/18 00:04:57;;;;;;;147.73;138.37;;;15.80;99.90;;;;;;5043588;28;20327;-71
2023/09/18 00:07:22;;;;;;;144.27;135.60;;;15.80;99.90;;;;;;5050181;28;20326;-71
2023/09/18 00:09:48;;;;;;;129.73;119.60;;;15.70;99.90;;;;;;5049242;28;20127;-71
2023/09/18 00:12:14;;;;;;;145.20;134.40;;;15.70;99.90;;;;;;5081517;28;20041;-71
2023/09/18 00:14:41;;;;;;;149.87;141.07;;;15.70;99.90;;;;;;5029328;28;20647;-71
2023/09/18 00:17:07;;;;;;;141.33;132.77;;;15.70;99.90;;;;;;5045319;28;20037;-71
2023/09/18 00:19:33;;;;;;;148.20;139.30;;;15.70;99.90;;;;;;5047965;28;20306;-71
2023/09/18 00:22:00;;;;;;;148.67;139.87;;;15.70;99.90;;;;;;5045037;28;20048;-71
2023/09/18 00:24:27;;;;;;;131.20;123.20;;;15.70;99.90;;;;;;5043925;28;20305;-71
2023/09/18 00:26:52;;;;;;;99.30;92.70;;;15.80;99.90;;;;;;5056530;28;20814;-71
2023/09/18 00:29:18;;;;;;;127.57;119.37;;;15.80;99.90;;;;;;5044244;28;20287;-71
2023/09/18 00:31:44;;;;;;;143.20;133.97;;;15.80;99.90;;;;;;5049521;28;20045;-71
2023/09/18 00:34:10;;;;;;;155.50;145.83;;;15.90;99.90;;;;;;5048270;28;20298;-71
2023/09/18 00:36:36;;;;;;;157.63;148.37;;;15.90;99.90;;;;;;5048667;28;20033;-71
2023/09/18 00:39:01;;;;;;;145.60;137.00;;;15.90;99.90;;;;;;5046297;28;20113;-71
2023/09/18 00:41:27;;;;;;;155.20;145.67;;;16.00;99.90;;;;;;5049074;28;20443;-71
2023/09/18 00:43:53;;;;;;;139.60;130.63;;;16.00;99.90;;;;;;5044622;28;20417;-71
2023/09/18 00:46:19;;;;;;;139.20;130.40;;;16.00;99.90;;;;;;5041891;28;20551;-71
2023/09/18 00:48:46;;;;;;;156.53;146.80;;;16.00;99.90;;;;;;5027669;28;20283;-71
2023/09/18 00:51:13;;;;;;;150.30;140.77;;;16.00;99.90;;;;;;5044431;28;20045;-71
2023/09/18 00:53:45;;;;;;;151.13;141.87;;;16.00;99.90;;;;;;5042432;28;20283;-71
2023/09/18 00:56:11;;;;;;;150.90;141.23;;;16.10;99.90;;;;;;5040839;28;20296;-71
2023/09/18 00:58:37;;;;;;;135.50;126.73;;;16.10;99.90;;;;;;5062438;28;20703;-71
2023/09/18 01:01:04;;;;;;;142.23;133.17;;;16.10;99.90;;;;;;5050180;28;20448;-71
2023/09/18 01:03:30;;;;;;;138.10;129.10;;;16.10;99.90;;;;;;5026460;28;20041;-71
2023/09/18 01:05:56;;;;;;;125.80;117.83;;;16.10;99.90;;;;;;5060600;28;20287;-71
2023/09/18 01:08:22;;;;;;;146.90;137.53;;;16.10;99.90;;;;;;5046569;28;20057;-71
2023/09/18 01:10:57;;;;;;;138.23;129.70;;;16.10;99.90;;;;;;5078702;28;20320;-71
2023/09/18 01:13:36;;;;;;;149.32;139.70;;;16.10;99.90;;;;;;5043573;28;20295;-71
2023/09/18 01:16:34;;;;;;;154.57;145.03;;;16.10;99.90;;;;;;5040784;28;20045;-71
2023/09/18 01:19:03;;;;;;;135.73;127.10;;;16.10;99.90;;;;;;5045584;28;20292;-71
2023/09/18 01:21:28;;;;;;;144.60;135.53;;;16.10;99.90;;;;;;5027556;28;20279;-71
2023/09/18 01:23:54;;;;;;;164.63;154.40;;;16.10;99.90;;;;;;5053321;28;20795;-71
2023/09/18 01:26:20;;;;;;;123.23;115.43;;;16.10;99.90;;;;;;5038047;28;20041;-71
2023/09/18 01:28:45;;;;;;;138.00;129.40;;;16.00;99.90;;;;;;5045274;28;20162;-71
2023/09/18 01:31:11;;;;;;;157.33;147.83;;;16.00;99.90;;;;;;5028250;28;20033;-71
2023/09/18 01:33:38;;;;;;;137.57;128.70;;;16.00;99.90;;;;;;5039906;28;20041;-71
2023/09/18 01:36:07;;;;;;;157.57;148.10;;;16.00;99.90;;;;;;5046801;28;20070;-71
2023/09/18 01:38:33;;;;;;;151.63;142.77;;;16.00;99.90;;;;;;5044649;28;20306;-71
2023/09/18 01:41:00;;;;;;;143.23;134.40;;;16.00;99.90;;;;;;5041000;28;20282;-71
2023/09/18 01:43:26;;;;;;;166.17;156.33;;;16.00;99.90;;;;;;5042586;28;20307;-71
2023/09/18 01:45:52;;;;;;;155.50;146.23;;;16.00;99.90;;;;;;5036888;28;20284;-71
2023/09/18 01:48:18;;;;;;;141.57;132.87;;;16.00;99.90;;;;;;5039829;28;20497;-72
2023/09/18 01:50:44;;;;;;;147.70;138.93;;;16.00;99.90;;;;;;5042598;28;20294;-71
2023/09/18 01:53:10;;;;;;;150.53;141.50;;;16.00;99.90;;;;;;5032789;28;20517;-71
2023/09/18 01:55:35;;;;;;;143.03;134.37;;;16.00;99.90;;;;;;5046567;28;20091;-71
2023/09/18 01:58:02;;;;;;;161.77;152.43;;;16.00;99.90;;;;;;5044664;28;20505;-71
2023/09/18 02:00:28;;;;;;;90.37;84.07;;;16.00;99.90;;;;;;5040649;28;20037;-71
2023/09/18 02:02:54;;;;;;;89.33;83.07;;;16.00;99.90;;;;;;5045402;28;20639;-71
2023/09/18 02:05:19;;;;;;;90.27;83.83;;;16.00;99.90;;;;;;5039258;28;20072;-71
2023/09/18 02:07:45;;;;;;;80.00;74.17;;;16.00;99.90;;;;;;5041222;28;20115;-71
2023/09/18 02:10:12;;;;;;;89.03;82.73;;;16.00;99.90;;;;;;5040153;28;20532;-71
2023/09/18 02:12:39;;;;;;;92.27;85.57;;;16.00;99.90;;;;;;5043735;28;20044;-71
2023/09/18 02:15:06;;;;;;;82.47;76.63;;;16.10;99.90;;;;;;5060160;28;20842;-71
2023/09/18 02:17:32;;;;;;;68.33;62.70;;;16.10;99.90;;;;;;5048799;28;20644;-71
2023/09/18 02:20:00;;;;;;;73.90;68.37;;;16.10;99.90;;;;;;5049697;28;20286;-71
2023/09/18 02:22:25;;;;;;;80.10;74.13;;;16.20;99.90;;;;;;5049047;28;20044;-71
2023/09/18 02:24:51;;;;;;;84.77;78.20;;;16.20;99.90;;;;;;5043557;28;20807;-71
2023/09/18 02:27:18;;;;;;;82.30;76.27;;;16.20;99.90;;;;;;5037830;28;20037;-71
2023/09/18 02:29:44;;;;;;;90.23;83.60;;;16.20;99.90;;;;;;5027196;28;20045;-71
2023/09/18 02:32:10;;;;;;;76.83;70.57;;;16.20;99.90;;;;;;5046521;28;20302;-71
2023/09/18 02:34:35;;;;;;;75.93;70.23;;;16.20;99.90;;;;;;5041626;28;20124;-71
2023/09/18 02:37:01;;;;;;;82.50;76.70;;;16.30;99.90;;;;;;5044515;28;20032;-71
2023/09/18 02:39:27;;;;;;;71.10;65.50;;;16.30;99.90;;;;;;5041903;28;20099;-71
2023/09/18 02:41:52;;;;;;;86.40;80.20;;;16.30;99.90;;;;;;5075829;28;20102;-71
2023/09/18 02:44:18;;;;;;;80.03;73.87;;;16.30;99.90;;;;;;5036909;28;20136;-71
2023/09/18 02:46:44;;;;;;;70.30;64.77;;;16.40;99.90;;;;;;5047448;28;20036;-71
2023/09/18 02:49:09;;;;;;;69.40;64.30;;;16.40;99.90;;;;;;5033483;28;20106;-71
2023/09/18 02:51:36;;;;;;;72.33;66.70;;;16.40;99.90;;;;;;5049498;28;20098;-71
2023/09/18 02:54:02;;;;;;;85.37;79.00;;;16.40;99.90;;;;;;5047403;28;20048;-71
2023/09/18 02:56:28;;;;;;;71.07;65.17;;;16.40;99.90;;;;;;5031012;28;20288;-71
2023/09/18 02:58:53;;;;;;;91.17;84.90;;;16.40;99.90;;;;;;5042391;28;20087;-71
2023/09/18 03:01:19;;;;;;;78.63;72.67;;;16.40;99.90;;;;;;5048452;28;20048;-71
2023/09/18 03:03:45;;;;;;;70.97;65.63;;;16.40;99.90;;;;;;5029394;28;20079;-72
2023/09/18 03:06:10;;;;;;;75.60;69.67;;;16.40;99.90;;;;;;5045953;28;20055;-71
2023/09/18 03:08:36;;;;;;;70.13;64.53;;;16.40;99.90;;;;;;5045081;28;20056;-71
2023/09/18 03:11:03;;;;;;;74.00;68.70;;;16.50;99.90;;;;;;5046830;28;20481;-71
2023/09/18 03:13:28;;;;;;;79.83;74.07;;;16.50;99.90;;;;;;5048960;28;20110;-71
2023/09/18 03:15:56;;;;;;;69.93;64.53;;;16.50;99.90;;;;;;5044007;28;20799;-71
2023/09/18 03:18:21;;;;;;;70.20;64.63;;;16.50;99.90;;;;;;5041770;28;20124;-71
2023/09/18 03:20:48;;;;;;;67.67;62.47;;;16.50;99.90;;;;;;5042434;28;20355;-71
2023/09/18 03:23:14;;;;;;;75.30;69.40;;;16.50;99.90;;;;;;5043934;28;20099;-72
2023/09/18 03:25:39;;;;;;;77.07;71.23;;;16.50;99.90;;;;;;5031405;28;20330;-72
2023/09/18 03:28:05;;;;;;;74.40;68.90;;;16.60;99.90;;;;;;5041168;28;20041;-72
2023/09/18 03:30:31;;;;;;;72.77;67.00;;;16.60;99.90;;;;;;5051662;28;20048;-72
2023/09/18 03:32:57;;;;;;;69.80;64.23;;;16.60;99.90;;;;;;5043022;28;20045;-72
2023/09/18 03:35:23;;;;;;;63.47;58.40;;;16.60;99.90;;;;;;5052342;28;20286;-72
2023/09/18 03:37:55;;;;;;;73.37;67.67;;;16.60;99.90;;;;;;5050661;28;20080;-72
2023/09/18 03:40:22;;;;;;;74.23;68.63;;;16.60;99.90;;;;;;5049278;28;20508;-72
2023/09/18 03:42:48;;;;;;;71.83;66.20;;;16.70;99.90;;;;;;5049430;28;20374;-72
2023/09/18 03:45:15;;;;;;;72.20;66.57;;;16.70;99.90;;;;;;5046522;28;20283;-71
2023/09/18 03:47:42;;;;;;;79.80;74.07;;;16.70;99.90;;;;;;5044320;28;20826;-71
2023/09/18 03:50:09;;;;;;;69.80;64.43;;;16.70;99.90;;;;;;5043997;28;20283;-72
2023/09/18 03:52:35;;;;;;;65.93;60.97;;;16.70;99.90;;;;;;5053919;28;20295;-72
2023/09/18 03:55:01;;;;;;;76.00;70.37;;;16.70;99.90;;;;;;5048919;28;20060;-72
2023/09/18 03:57:27;;;;;;;70.37;64.80;;;16.70;99.90;;;;;;5059526;28;20033;-72
2023/09/18 03:59:53;;;;;;;67.93;62.50;;;16.70;99.90;;;;;;5054932;28;20366;-72
2023/09/18 04:02:18;;;;;;;68.93;63.30;;;16.70;99.90;;;;;;5052398;28;20496;-71
2023/09/18 04:04:44;;;;;;;72.97;67.53;;;16.80;99.90;;;;;;5050828;28;20072;-71
2023/09/18 04:07:11;;;;;;;70.07;64.27;;;16.80;99.90;;;;;;5047041;28;20417;-71
2023/09/18 04:09:37;;;;;;;65.13;60.13;;;16.80;99.90;;;;;;5069205;28;20041;-71
2023/09/18 04:12:07;;;;;;;69.17;63.90;;;16.80;99.90;;;;;;5049259;28;20779;-71
2023/09/18 04:14:33;;;;;;;67.17;62.00;;;16.80;99.90;;;;;;5048488;28;20488;-71
2023/09/18 04:17:00;;;;;;;79.97;73.77;;;16.80;99.90;;;;;;5055230;28;20300;-71
2023/09/18 04:19:26;;;;;;;72.67;67.33;;;16.80;99.90;;;;;;5029560;28;20041;-71
2023/09/18 04:21:52;;;;;;;75.53;69.90;;;16.80;99.90;;;;;;5054780;28;20364;-71
2023/09/18 04:24:18;;;;;;;67.27;62.07;;;16.80;99.90;;;;;;5053523;28;20283;-71
2023/09/18 04:26:44;;;;;;;66.10;61.10;;;16.80;99.90;;;;;;5046424;28;20037;-71
2023/09/18 04:29:09;;;;;;;74.40;69.10;;;16.80;99.90;;;;;;5048992;28;20041;-71
2023/09/18 04:31:35;;;;;;;64.20;58.93;;;16.90;99.90;;;;;;5044264;28;20045;-71
2023/09/18 04:34:02;;;;;;;72.53;67.23;;;16.90;99.90;;;;;;5031863;28;20043;-71
2023/09/18 04:36:28;;;;;;;81.80;76.27;;;16.80;99.90;;;;;;5026161;28;20041;-72
2023/09/18 04:38:54;;;;;;;74.57;69.27;;;16.90;99.90;;;;;;5025953;28;20279;-71
2023/09/18 04:41:20;;;;;;;76.73;71.47;;;16.90;99.90;;;;;;5037639;28;20044;-71
2023/09/18 04:43:45;;;;;;;77.93;72.37;;;16.90;99.90;;;;;;5039387;28;20119;-71
2023/09/18 04:46:11;;;;;;;79.70;73.57;;;16.90;99.90;;;;;;5040576;28;20061;-72
2023/09/18 04:48:37;;;;;;;97.80;91.23;;;16.90;99.90;;;;;;5039762;28;20045;-71
2023/09/18 04:51:03;;;;;;;100.10;93.77;;;16.90;99.90;;;;;;5043992;28;20101;-72
2023/09/18 04:53:30;;;;;;;95.23;89.00;;;16.90;99.90;;;;;;5040258;28;20041;-72
2023/09/18 04:55:55;;;;;;;135.57;127.83;;;17.00;99.90;;;;;;5039779;28;20060;-72
2023/09/18 04:58:21;;;;;;;122.33;115.10;;;17.00;99.90;;;;;;5046798;28;20080;-72
2023/09/18 05:00:54;;;;;;;124.33;117.00;;;17.00;99.90;;;;;;5043987;28;20033;-72
2023/09/18 05:03:20;;;;;;;112.70;106.00;;;17.00;99.90;;;;;;5045660;28;20033;-72
2023/09/18 05:05:47;;;;;;;106.33;100.00;;;17.00;99.90;;;;;;5073151;28;20434;-72
2023/09/18 05:08:13;;;;;;;107.67;101.13;;;17.00;99.90;;;;;;5045402;28;20036;-72
2023/09/18 05:10:38;;;;;;;115.07;108.20;;;17.00;99.90;;;;;;5041948;28;20133;-72
2023/09/18 05:13:04;;;;;;;100.33;94.20;;;17.00;99.90;;;;;;5047446;28;20059;-72
2023/09/18 05:15:30;;;;;;;100.77;94.73;;;17.00;99.90;;;;;;5039065;28;20067;-73
2023/09/18 05:17:57;;;;;;;185.73;175.60;;;17.00;99.90;;;;;;5046720;28;20802;-73
2023/09/18 05:20:28;;;;;;;183.83;173.47;;;17.00;99.90;;;;;;5039877;28;20033;-73
2023/09/18 05:22:55;;;;;;;136.93;128.67;;;17.00;99.90;;;;;;5044808;28;20041;-73
2023/09/18 05:25:22;;;;;;;150.43;141.63;;;17.10;99.90;;;;;;5049538;28;20337;-72
2023/09/18 05:27:55;;;;;;;157.73;148.50;;;17.10;99.90;;;;;;5042568;28;20044;-72
2023/09/18 05:30:25;;;;;;;147.57;139.07;;;17.10;99.90;;;;;;5028240;28;20408;-72
2023/09/18 05:32:50;;;;;;;153.93;144.77;;;17.20;99.90;;;;;;5044438;28;20434;-72
2023/09/18 05:35:16;;;;;;;146.87;138.50;;;17.20;99.90;;;;;;5044024;28;20044;-72
2023/09/18 05:37:43;;;;;;;135.97;128.10;;;17.30;99.90;;;;;;5042665;28;20507;-72
2023/09/18 05:40:10;;;;;;;167.07;157.67;;;17.40;99.90;;;;;;5040754;28;20052;-72
2023/09/18 05:42:38;;;;;;;142.10;133.67;;;17.50;99.90;;;;;;5040784;28;20045;-72
2023/09/18 05:45:04;;;;;;;150.67;141.97;;;17.50;99.90;;;;;;5035334;28;20037;-72
2023/09/18 05:47:32;;;;;;;152.10;143.63;;;17.60;99.90;;;;;;5047827;28;20044;-72
2023/09/18 05:49:58;;;;;;;156.27;147.67;;;17.70;99.90;;;;;;5049248;28;20044;-72
2023/09/18 05:52:25;;;;;;;199.87;188.57;;;17.80;99.90;;;;;;5049875;28;20033;-72
2023/09/18 05:54:51;;;;;;;150.17;141.43;;;17.80;99.90;;;;;;5033985;28;20053;-72
2023/09/18 05:57:17;;;;;;;172.10;162.30;;;17.90;99.90;;;;;;5043935;28;20033;-72
2023/09/18 05:59:46;;;;;;;223.60;211.37;;;18.00;99.90;;;;;;5037898;28;20034;-72
2023/09/18 06:02:12;;;;;;;197.87;186.20;;;18.10;99.90;;;;;;5064795;28;20083;-72
2023/09/18 06:04:37;;;;;;;219.97;207.63;;;18.10;99.90;;;;;;5025774;28;20560;-72
2023/09/18 06:07:07;;;;;;;230.50;217.93;;;18.10;99.90;;;;;;5041767;28;20123;-72
2023/09/18 06:09:32;;;;;;;224.97;212.33;;;18.20;99.90;;;;;;5040138;28;20045;-72
2023/09/18 06:11:59;;;;;;;205.63;194.00;;;18.20;99.90;;;;;;5066055;28;20048;-72
2023/09/18 06:14:25;;;;;;;215.07;202.70;;;18.20;99.90;;;;;;5050592;28;20537;-73
2023/09/18 06:16:51;;;;;;;210.07;198.10;;;18.20;99.90;;;;;;5043936;28;20451;-72
2023/09/18 06:19:19;;;;;;;206.43;194.73;;;18.20;99.90;;;;;;5047199;28;20044;-72
2023/09/18 06:21:45;;;;;;;199.77;188.33;;;18.20;99.90;;;;;;5027362;28;20033;-73
2023/09/18 06:24:12;;;;;;;216.47;204.53;;;18.20;99.90;;;;;;5041062;28;20461;-73
2023/09/18 06:26:37;;;;;;;201.93;190.30;;;18.20;99.90;;;;;;5039331;28;20052;-74
2023/09/18 06:29:04;;;;;;;279.33;264.23;;;18.20;99.90;;;;;;5040686;28;20029;-73
2023/09/18 06:31:31;;;;;;;193.07;182.43;;;18.30;99.90;;;;;;5039063;28;20053;-73
2023/09/18 06:33:57;;;;;;;183.00;172.93;;;18.30;99.90;;;;;;5043586;28;20041;-73
2023/09/18 06:36:22;;;;;;;185.40;174.97;;;18.30;99.90;;;;;;5030398;28;20036;-73
2023/09/18 06:38:48;;;;;;;177.10;166.80;;;18.30;99.90;;;;;;5045524;28;20037;-73
2023/09/18 06:41:14;;;;;;;207.17;195.87;;;18.30;99.90;;;;;;5025598;28;20029;-72
2023/09/18 06:43:39;;;;;;;325.57;306.53;;;18.30;99.90;;;;;;5051588;28;20474;-73
2023/09/18 06:46:07;;;;;;;183.23;173.87;;;18.30;99.90;;;;;;5035668;28;20137;-74
2023/09/18 06:48:33;;;;;;;235.63;222.93;;;18.30;99.90;;;;;;5035265;28;20053;-74
2023/09/18 06:51:02;;;;;;;178.93;169.93;;;18.30;99.90;;;;;;5032737;28;20053;-73
2023/09/18 06:53:28;;;;;;;187.97;178.57;;;18.20;99.90;;;;;;5039695;28;20115;-73
2023/09/18 06:55:54;;;;;;;192.67;183.23;;;18.10;99.90;;;;;;5024625;28;20030;-73
2023/09/18 06:58:20;;;;;;;173.00;164.07;;;18.10;99.90;;;;;;5035943;28;20091;-73
2023/09/18 07:00:46;;;;;;;183.33;174.00;;;18.00;99.90;;;;;;5036915;28;20440;-73
2023/09/18 07:03:12;;;;;;;169.67;161.20;;;18.00;99.90;;;;;;5052768;28;20515;-73
2023/09/18 07:05:40;;;;;;;180.47;171.13;;;17.90;99.90;;;;;;5041195;28;20041;-73
2023/09/18 07:08:09;;;;;;;180.37;171.37;;;17.90;99.90;;;;;;5040683;28;20033;-73
2023/09/18 07:10:35;;;;;;;170.23;161.57;;;17.90;99.90;;;;;;5018176;28;20401;-73
2023/09/18 07:13:01;;;;;;;175.93;166.73;;;17.80;99.90;;;;;;5022868;28;20045;-73
2023/09/18 07:15:27;;;;;;;166.63;158.27;;;17.80;99.90;;;;;;5017088;28;20547;-73
2023/09/18 07:17:52;;;;;;;170.00;161.43;;;17.80;99.90;;;;;;5056127;28;20049;-73
2023/09/18 07:20:18;;;;;;;154.67;146.93;;;17.80;99.90;;;;;;5032075;28;20097;-73
2023/09/18 07:22:48;;;;;;;145.70;138.40;;;17.80;99.90;;;;;;5026793;28;20039;-73
2023/09/18 07:25:14;;;;;;;190.40;181.13;;;17.80;99.90;;;;;;5039306;28;20048;-73
2023/09/18 07:27:43;;;;;;;162.87;155.03;;;17.90;99.90;;;;;;5036422;28;20077;-73
2023/09/18 07:30:11;;;;;;;150.33;143.00;;;17.90;99.90;;;;;;5018375;28;20063;-73
2023/09/18 07:32:40;;;;;;;150.60;143.13;;;17.90;99.90;;;;;;5032933;28;20079;-74
2023/09/18 07:35:07;;;;;;;148.83;141.40;;;17.90;99.90;;;;;;5043710;28;20107;-73
2023/09/18 07:37:33;;;;;;;147.30;140.17;;;17.90;99.90;;;;;;5038850;28;20445;-73
2023/09/18 07:39:59;;;;;;;152.73;145.27;;;18.00;99.90;;;;;;5041532;28;20120;-73
2023/09/18 07:42:25;;;;;;;153.93;146.17;;;18.00;99.90;;;;;;5046433;28;20128;-73
2023/09/18 07:44:51;;;;;;;155.30;147.63;;;18.00;99.90;;;;;;5071697;28;20574;-73
2023/09/18 07:47:17;;;;;;;177.53;168.93;;;18.00;99.90;;;;;;5056078;28;20052;-73
2023/09/18 07:49:43;;;;;;;163.67;155.37;;;18.00;99.90;;;;;;5039706;28;20050;-73
2023/09/18 07:52:08;;;;;;;166.57;158.40;;;18.10;99.90;;;;;;5043328;28;20051;-73
2023/09/18 07:54:35;;;;;;;116.83;111.10;;;18.10;99.90;;;;;;5021354;28;20612;-73
2023/09/18 07:57:01;;;;;;;190.00;181.10;;;18.10;99.90;;;;;;5035161;28;20114;-73
2023/09/18 07:59:27;;;;;;;189.83;180.70;;;18.10;99.90;;;;;;5044074;28;20509;-74
2023/09/18 08:01:54;;;;;;;187.40;178.17;;;18.10;99.90;;;;;;5042104;28;20044;-73
2023/09/18 08:04:20;;;;;;;195.63;186.50;;;18.10;99.90;;;;;;5036423;28;20037;-73
2023/09/18 08:06:47;;;;;;;179.50;170.87;;;18.10;99.90;;;;;;5036457;28;20037;-73
2023/09/18 08:09:17;;;;;;;202.90;193.20;;;18.10;99.90;;;;;;5035775;28;20091;-73
2023/09/18 08:11:42;;;;;;;186.00;176.90;;;18.20;99.90;;;;;;5041403;28;20049;-73
2023/09/18 08:14:09;;;;;;;175.63;167.00;;;18.20;99.90;;;;;;5043339;28;20041;-73
2023/09/18 08:16:37;;;;;;;183.63;174.87;;;18.20;99.90;;;;;;5023760;28;20063;-73
2023/09/18 08:19:03;;;;;;;191.83;182.73;;;18.30;99.90;;;;;;5040892;28;20083;-73
2023/09/18 08:21:29;;;;;;;167.77;159.67;;;18.40;99.90;;;;;;5028842;28;20068;-73
2023/09/18 08:23:55;;;;;;;173.83;165.43;;;18.40;99.90;;;;;;5028341;28;20121;-73
2023/09/18 08:26:22;;;;;;;160.87;153.17;;;18.50;99.90;;;;;;5036202;28;20203;-73
2023/09/18 08:28:48;;;;;;;189.67;180.63;;;18.60;99.90;;;;;;5040005;28;20045;-73
2023/09/18 08:31:16;;;;;;;181.87;173.50;;;18.70;99.90;;;;;;5036983;28;20049;-73
2023/09/18 08:33:43;;;;;;;195.40;186.07;;;18.80;99.90;;;;;;5041433;28;20124;-73
2023/09/18 08:36:09;;;;;;;189.10;180.37;;;18.80;99.90;;;;;;5032779;28;20045;-73
2023/09/18 08:38:35;;;;;;;197.20;187.80;;;18.90;99.90;;;;;;5035420;28;20045;-73
2023/09/18 08:41:00;;;;;;;199.80;190.30;;;19.00;99.90;;;;;;5038820;28;20053;-72
2023/09/18 08:43:26;;;;;;;197.67;188.27;;;19.00;99.90;;;;;;5039566;28;20041;-72
2023/09/18 08:45:53;;;;;;;190.20;181.27;;;19.10;99.90;;;;;;5038657;28;20041;-72
2023/09/18 08:48:20;;;;;;;205.87;196.20;;;19.20;99.90;;;;;;5038408;28;20119;-72
2023/09/18 08:50:48;;;;;;;186.27;177.27;;;19.30;99.90;;;;;;5028963;28;20055;-72
2023/09/18 08:53:14;;;;;;;199.40;190.00;;;19.40;99.90;;;;;;5014415;28;20072;-72
2023/09/18 08:55:40;;;;;;;233.13;221.50;;;19.50;99.90;;;;;;5023050;28;20432;-72
2023/09/18 08:58:07;;;;;;;232.80;221.40;;;19.60;99.90;;;;;;5043415;28;20052;-72
2023/09/18 09:00:36;;;;;;;196.03;186.60;;;19.70;99.90;;;;;;5044419;28;20095;-72
2023/09/18 09:03:04;;;;;;;217.43;207.20;;;19.70;99.90;;;;;;5045542;28;20090;-72
2023/09/18 09:05:31;;;;;;;226.13;215.67;;;19.80;99.90;;;;;;5043822;28;20041;-72
2023/09/18 09:07:57;;;;;;;201.17;191.17;;;19.80;99.90;;;;;;5035277;28;20034;-72
2023/09/18 09:10:22;;;;;;;224.33;213.60;;;19.90;99.90;;;;;;5034251;28;20099;-72
2023/09/18 09:12:53;;;;;;;198.70;189.23;;;19.90;99.90;;;;;;5048032;28;20041;-72
2023/09/18 09:15:21;;;;;;;207.57;197.53;;;19.90;99.90;;;;;;5040653;28;20429;-72
2023/09/18 09:17:47;;;;;;;209.50;199.63;;;19.90;99.90;;;;;;5047073;28;20091;-72
2023/09/18 09:20:14;;;;;;;228.93;217.87;;;19.90;99.90;;;;;;5034409;28;20041;-72
2023/09/18 09:22:41;;;;;;;235.03;223.53;;;20.00;99.90;;;;;;5041212;28;20070;-72
2023/09/18 09:25:27;;;;;;;242.70;230.93;;;20.10;99.90;;;;;;5035043;28;20120;-72
2023/09/18 09:27:53;;;;;;;;;;;20.20;99.90;;;;;;5068491;28;20029;-72
2023/09/18 09:30:21;;;;;;;244.03;232.30;;;20.40;99.90;;;;;;5024346;28;19951;-72
2023/09/18 09:32:55;;;;;;;216.03;205.37;;;20.80;99.90;;;;;;5041634;28;20397;-72
2023/09/18 09:35:30;;;;;;;239.07;227.73;;;21.10;99.90;;;;;;5051651;28;20157;-72
2023/09/18 09:38:28;;;;;;;209.80;199.50;;;21.20;99.90;;;;;;5052230;28;20437;-72
2023/09/18 09:40:54;;;;;;;205.97;196.27;;;21.30;99.90;;;;;;5039420;28;20056;-72
2023/09/18 09:43:21;;;;;;;200.70;191.20;;;21.40;99.90;;;;;;5047551;28;20048;-71
2023/09/18 09:45:47;;;;;;;189.57;180.47;;;21.30;99.90;;;;;;5044961;28;20515;-71
2023/09/18 09:48:13;;;;;;;194.90;185.23;;;21.20;99.90;;;;;;5043785;28;20041;-71
2023/09/18 09:50:47;;;;;;;220.70;210.13;;;21.20;99.90;;;;;;5028881;28;20482;-71
2023/09/18 09:53:14;;;;;;;197.52;187.98;;;21.20;99.90;;;;;;5028195;28;20044;-71
2023/09/18 09:55:40;;;;;;;199.10;189.47;;;21.00;99.90;;;;;;5047769;28;20099;-72
2023/09/18 09:58:08;;;;;;;204.20;194.23;;;20.90;99.90;;;;;;5045333;28;20076;-72
2023/09/18 10:00:47;;;;;;;189.00;179.77;;;20.80;99.90;;;;;;5044114;28;20095;-72
2023/09/18 10:03:15;;;;;;;180.17;170.87;;;20.80;99.90;;;;;;5038717;28;20125;-71
2023/09/18 10:05:44;;;;;;;179.13;169.83;;;20.90;99.90;;;;;;5033149;28;20040;-71
2023/09/18 10:08:17;;;;;;;202.53;192.53;;;20.90;99.80;;;;;;5049710;28;20450;-71
2023/09/18 10:10:51;;;;;;;198.03;188.53;;;20.90;99.20;;;;;;5046710;28;20045;-71
2023/09/18 10:13:40;;;;;;;183.48;174.23;;;21.10;99.80;;;;;;5047886;28;20047;-71
2023/09/18 10:16:09;;;;;;;187.67;178.57;;;21.30;99.10;;;;;;5035625;28;20107;-71
2023/09/18 10:18:46;;;;;;;210.67;200.80;;;21.40;98.70;;;;;;5036245;28;20124;-72
2023/09/18 10:21:27;;;;;;;203.63;193.90;;;21.40;97.60;;;;;;5046651;28;20116;-72
2023/09/18 10:24:14;;;;;;;198.37;188.70;;;21.40;96.40;;;;;;5057933;28;20052;-72
2023/09/18 10:26:58;;;;;;;197.13;187.73;;;21.50;96.50;;;;;;5041723;28;20086;-71
2023/09/18 10:29:24;;;;;;;192.57;183.17;;;21.50;95.60;;;;;;5039846;28;20052;-71
2023/09/18 10:31:53;;;;;;;198.73;189.10;;;21.50;94.20;;;;;;5041129;28;20052;-71
2023/09/18 10:34:20;;;;;;;207.03;197.13;;;21.50;94.70;;;;;;5042765;28;20185;-71
2023/09/18 10:36:50;;;;;;;232.40;221.17;;;21.70;93.90;;;;;;5044643;28;20048;-71
2023/09/18 10:39:23;;;;;;;209.00;199.07;;;21.80;93.40;;;;;;5045987;28;20040;-71
2023/09/18 10:41:54;;;;;;;234.47;223.30;;;21.90;93.00;;;;;;5041859;28;20607;-71
2023/09/18 10:44:20;;;;;;;219.67;209.27;;;21.90;92.70;;;;;;5041608;28;20420;-71
2023/09/18 10:46:48;;;;;;;219.37;209.23;;;22.00;92.20;;;;;;5047862;28;20045;-71
2023/09/18 10:49:17;;;;;;;216.40;206.17;;;22.10;91.80;;;;;;5050161;28;20032;-71
2023/09/18 10:51:43;;;;;;;210.53;200.43;;;22.20;91.40;;;;;;5032885;28;20045;-71
2023/09/18 10:54:11;;;;;;;216.97;206.77;;;22.30;89.70;;;;;;5047730;28;20047;-71
2023/09/18 10:56:37;;;;;;;267.90;255.07;;;22.10;89.30;;;;;;5049771;28;20041;-71
2023/09/18 10:59:07;;;;;;;209.63;199.83;;;22.20;89.60;;;;;;5049840;28;20040;-71
2023/09/18 11:01:36;;;;;;;216.23;206.17;;;22.30;89.70;;;;;;5033491;28;20041;-71
2023/09/18 11:04:06;;;;;;;207.30;197.30;;;22.30;88.20;;;;;;5031793;28;20119;-71
2023/09/18 11:06:54;;;;;;;198.37;188.83;;;22.30;88.30;;;;;;5064292;28;20078;-71
2023/09/18 11:09:27;;;;;;;235.70;224.10;;;22.40;87.40;;;;;;5046397;28;20048;-71
2023/09/18 11:11:57;;;;;;;176.90;168.27;;;22.40;86.80;;;;;;5030437;28;20378;-71
2023/09/18 11:14:40;;;;;;;217.97;207.17;;;22.30;87.00;;;;;;5044753;28;20099;-71
2023/09/18 11:17:06;;;;;;;237.03;225.50;;;22.50;87.30;;;;;;5043067;28;20573;-71
2023/09/18 11:19:31;;;;;;;212.23;201.10;;;22.60;84.90;;;;;;5048916;28;20123;-71
2023/09/18 11:22:10;;;;;;;198.30;188.70;;;22.70;81.60;;;;;;5049869;28;20041;-71
2023/09/18 11:24:35;;;;;;;174.33;165.83;;;22.60;81.20;;;;;;5046710;28;20099;-71
2023/09/18 11:27:01;;;;;;;200.87;191.13;;;22.30;82.00;;;;;;5039988;28;20103;-71
2023/09/18 11:29:30;;;;;;;179.57;170.80;;;22.00;82.50;;;;;;5045567;28;20091;-71
2023/09/18 11:31:57;;;;;;;176.97;168.37;;;21.80;82.90;;;;;;5043845;28;20045;-71
2023/09/18 11:34:28;;;;;;;182.10;173.13;;;21.60;83.50;;;;;;5041755;28;20076;-71
2023/09/18 11:36:55;;;;;;;182.90;173.97;;;21.60;84.60;;;;;;5063279;28;20741;-71
2023/09/18 11:39:50;;;;;;;178.17;169.10;;;21.60;84.60;;;;;;5044828;28;20077;-71
2023/09/18 11:42:20;;;;;;;158.65;151.02;;;21.70;85.70;;;;;;5030266;28;20107;-71
2023/09/18 11:44:46;;;;;;;213.40;202.17;;;21.90;85.80;;;;;;5022941;28;20064;-71
2023/09/18 11:47:24;;;;;;;202.60;192.70;;;22.20;85.10;;;;;;5043319;28;20033;-71
2023/09/18 11:49:55;;;;;;;204.33;194.43;;;22.50;84.10;;;;;;5042578;28;20091;-71
2023/09/18 11:52:26;;;;;;;213.37;203.47;;;22.80;82.20;;;;;;5041135;28;20051;-71
2023/09/18 11:54:54;;;;;;;249.53;237.07;;;23.00;81.40;;;;;;5045961;28;20049;-71
2023/09/18 11:57:20;;;;;;;207.23;197.60;;;23.00;80.70;;;;;;5046154;28;20493;-71
2023/09/18 11:59:46;;;;;;;223.53;213.20;;;23.10;79.80;;;;;;5047552;28;20099;-71
2023/09/18 12:02:20;;;;;;;274.53;260.73;;;23.10;80.60;;;;;;5052337;28;20446;-70
2023/09/18 12:04:48;;;;;;;214.97;204.70;;;23.00;78.20;;;;;;5051717;28;20052;-70
2023/09/18 12:07:14;;;;;;;217.00;206.63;;;23.00;78.90;;;;;;5031237;28;20507;-70
2023/09/18 12:09:40;;;;;;;205.33;195.70;;;23.10;77.60;;;;;;5033379;28;20128;-70
2023/09/18 12:12:07;;;;;;;384.20;355.73;;;23.10;77.90;;;;;;5048134;28;20037;-70
2023/09/18 12:14:33;;;;;;;230.80;219.83;;;23.10;75.10;;;;;;5039665;28;20041;-70